sensor_id;sensor_type;location;lat;lon;timestamp;temperature;humidity
7248;DHT22;3665;51.034;13.642;2022-08-20T00:04:26;18.90;39.40
7248;DHT22;3665;51.034;13.642;2022-08-20T00:09:11;18.80;13.30
7248;DHT22;3665;51.034;13.642;2022-08-20T00:13:56;18.70;1.00
7248;DHT22;3665;51.034;13.642;2022-08-20T00:18:41;18.70;1.00
7248;DHT22;3665;51.034;13.642;2022-08-20T00:23:25;18.60;1.00
7248;DHT22;3665;51.034;13.642;2022-08-20T00:28:10;18.60;1.00
7248;DHT22;3665;51.034;13.642;2022-08-20T00:32:56;18.50;1.00
7248;DHT22;3665;51.034;13.642;2022-08-20T00:37:40;18.50;99.90
7248;DHT22;3665;51.034;13.642;2022-08-20T00:42:24;18.50;99.90
7248;DHT22;3665;51.034;13.642;2022-08-20T00:47:09;18.50;99.90
7248;DHT22;3665;51.034;13.642;2022-08-20T00:51:58;18.40;1.00
7248;DHT22;3665;51.034;13.642;2022-08-20T00:56:45;18.40;1.00
7248;DHT22;3665;51.034;13.642;2022-08-20T01:01:29;18.40;99.90
7248;DHT22;3665;51.034;13.642;2022-08-20T01:06:37;18.40;99.90
7248;DHT22;3665;51.034;13.642;2022-08-20T01:11:21;18.40;99.90
7248;DHT22;3665;51.034;13.642;2022-08-20T01:16:24;18.20;99.90
7248;DHT22;3665;51.034;13.642;2022-08-20T01:21:10;18.30;99.90
7248;DHT22;3665;51.034;13.642;2022-08-20T01:25:58;18.20;99.90
7248;DHT22;3665;51.034;13.642;2022-08-20T01:30:44;18.10;99.90
7248;DHT22;3665;51.034;13.642;2022-08-20T01:35:28;18.00;99.90
7248;DHT22;3665;51.034;13.642;2022-08-20T01:40:16;18.00;99.90
7248;DHT22;3665;51.034;13.642;2022-08-20T01:45:05;18.00;99.90
7248;DHT22;3665;51.034;13.642;2022-08-20T01:49:51;18.00;99.90
7248;DHT22;3665;51.034;13.642;2022-08-20T01:54:35;18.00;99.90
7248;DHT22;3665;51.034;13.642;2022-08-20T01:59:20;18.00;99.90
7248;DHT22;3665;51.034;13.642;2022-08-20T02:04:08;18.00;99.90
7248;DHT22;3665;51.034;13.642;2022-08-20T02:08:58;17.90;99.90
7248;DHT22;3665;51.034;13.642;2022-08-20T02:13:43;17.90;99.90
7248;DHT22;3665;51.034;13.642;2022-08-20T02:18:31;17.90;99.90
7248;DHT22;3665;51.034;13.642;2022-08-20T02:23:16;17.90;99.90
7248;DHT22;3665;51.034;13.642;2022-08-20T02:28:02;17.80;99.90
7248;DHT22;3665;51.034;13.642;2022-08-20T02:32:46;17.80;99.90
7248;DHT22;3665;51.034;13.642;2022-08-20T02:37:36;17.80;99.90
7248;DHT22;3665;51.034;13.642;2022-08-20T02:42:21;17.90;99.90
7248;DHT22;3665;51.034;13.642;2022-08-20T02:47:06;17.90;99.90
7248;DHT22;3665;51.034;13.642;2022-08-20T02:51:50;18.00;99.90
7248;DHT22;3665;51.034;13.642;2022-08-20T02:56:34;18.00;99.90
7248;DHT22;3665;51.034;13.642;2022-08-20T03:01:20;18.00;99.90
7248;DHT22;3665;51.034;13.642;2022-08-20T03:06:05;18.00;99.90
7248;DHT22;3665;51.034;13.642;2022-08-20T03:10:50;18.00;99.90
7248;DHT22;3665;51.034;13.642;2022-08-20T03:15:34;18.00;99.90
7248;DHT22;3665;51.034;13.642;2022-08-20T03:20:20;17.90;99.90
7248;DHT22;3665;51.034;13.642;2022-08-20T03:25:06;17.90;99.90
7248;DHT22;3665;51.034;13.642;2022-08-20T03:29:51;18.00;99.90
7248;DHT22;3665;51.034;13.642;2022-08-20T03:34:35;17.90;99.90
7248;DHT22;3665;51.034;13.642;2022-08-20T03:39:20;17.90;99.90
7248;DHT22;3665;51.034;13.642;2022-08-20T03:44:04;17.90;99.90
7248;DHT22;3665;51.034;13.642;2022-08-20T03:48:48;17.90;99.90
7248;DHT22;3665;51.034;13.642;2022-08-20T03:53:41;17.70;99.90
7248;DHT22;3665;51.034;13.642;2022-08-20T03:58:26;17.70;99.90
7248;DHT22;3665;51.034;13.642;2022-08-20T04:03:17;17.70;99.90
7248;DHT22;3665;51.034;13.642;2022-08-20T04:08:01;17.70;99.90
7248;DHT22;3665;51.034;13.642;2022-08-20T04:12:48;17.70;99.90
7248;DHT22;3665;51.034;13.642;2022-08-20T04:17:35;17.70;99.90
7248;DHT22;3665;51.034;13.642;2022-08-20T04:22:19;17.70;99.90
7248;DHT22;3665;51.034;13.642;2022-08-20T04:27:04;17.70;99.90
7248;DHT22;3665;51.034;13.642;2022-08-20T04:31:49;17.70;99.90
7248;DHT22;3665;51.034;13.642;2022-08-20T04:36:34;17.60;99.90
7248;DHT22;3665;51.034;13.642;2022-08-20T04:41:19;17.60;99.90
7248;DHT22;3665;51.034;13.642;2022-08-20T04:46:07;17.60;99.90
7248;DHT22;3665;51.034;13.642;2022-08-20T04:50:52;17.60;99.90
7248;DHT22;3665;51.034;13.642;2022-08-20T04:55:38;17.60;99.90
7248;DHT22;3665;51.034;13.642;2022-08-20T05:00:23;17.60;99.90
7248;DHT22;3665;51.034;13.642;2022-08-20T05:05:08;17.60;99.90
7248;DHT22;3665;51.034;13.642;2022-08-20T05:09:51;17.50;99.90
7248;DHT22;3665;51.034;13.642;2022-08-20T05:14:36;17.60;99.90
7248;DHT22;3665;51.034;13.642;2022-08-20T05:19:20;17.60;99.90
7248;DHT22;3665;51.034;13.642;2022-08-20T05:24:04;17.40;99.90
7248;DHT22;3665;51.034;13.642;2022-08-20T05:28:48;17.50;99.90
7248;DHT22;3665;51.034;13.642;2022-08-20T05:33:40;17.50;99.90
7248;DHT22;3665;51.034;13.642;2022-08-20T05:38:26;17.40;99.90
7248;DHT22;3665;51.034;13.642;2022-08-20T05:43:10;17.50;99.90
7248;DHT22;3665;51.034;13.642;2022-08-20T05:47:54;17.50;99.90
7248;DHT22;3665;51.034;13.642;2022-08-20T05:52:40;17.60;99.90
7248;DHT22;3665;51.034;13.642;2022-08-20T05:57:26;17.60;99.90
7248;DHT22;3665;51.034;13.642;2022-08-20T06:02:11;17.70;99.90
7248;DHT22;3665;51.034;13.642;2022-08-20T06:07:49;17.80;99.90
7248;DHT22;3665;51.034;13.642;2022-08-20T06:12:36;17.80;99.90
7248;DHT22;3665;51.034;13.642;2022-08-20T06:17:20;17.90;99.90
7248;DHT22;3665;51.034;13.642;2022-08-20T06:22:05;17.90;99.90
7248;DHT22;3665;51.034;13.642;2022-08-20T06:27:04;17.80;99.90
7248;DHT22;3665;51.034;13.642;2022-08-20T06:31:48;17.60;99.90
7248;DHT22;3665;51.034;13.642;2022-08-20T06:36:32;17.50;99.90
7248;DHT22;3665;51.034;13.642;2022-08-20T06:41:16;17.50;99.90
7248;DHT22;3665;51.034;13.642;2022-08-20T06:46:01;17.50;99.90
7248;DHT22;3665;51.034;13.642;2022-08-20T06:50:46;17.50;99.90
7248;DHT22;3665;51.034;13.642;2022-08-20T06:55:30;17.40;99.90
7248;DHT22;3665;51.034;13.642;2022-08-20T07:00:17;17.40;99.90
7248;DHT22;3665;51.034;13.642;2022-08-20T07:05:04;17.40;99.90
7248;DHT22;3665;51.034;13.642;2022-08-20T07:09:50;17.40;99.90
7248;DHT22;3665;51.034;13.642;2022-08-20T07:14:41;17.50;99.90
7248;DHT22;3665;51.034;13.642;2022-08-20T07:19:24;17.50;99.90
7248;DHT22;3665;51.034;13.642;2022-08-20T07:24:09;17.50;99.90
7248;DHT22;3665;51.034;13.642;2022-08-20T07:28:53;17.50;99.90
7248;DHT22;3665;51.034;13.642;2022-08-20T07:33:38;17.50;99.90
7248;DHT22;3665;51.034;13.642;2022-08-20T07:38:24;17.70;99.90
7248;DHT22;3665;51.034;13.642;2022-08-20T07:43:09;17.70;99.90
7248;DHT22;3665;51.034;13.642;2022-08-20T07:47:53;17.70;99.90
7248;DHT22;3665;51.034;13.642;2022-08-20T07:52:37;17.80;99.90
7248;DHT22;3665;51.034;13.642;2022-08-20T07:57:20;18.00;99.90
7248;DHT22;3665;51.034;13.642;2022-08-20T08:02:06;18.20;99.90
7248;DHT22;3665;51.034;13.642;2022-08-20T08:06:51;18.40;99.90
7248;DHT22;3665;51.034;13.642;2022-08-20T08:11:38;18.70;99.90
7248;DHT22;3665;51.034;13.642;2022-08-20T08:16:28;18.90;99.90
7248;DHT22;3665;51.034;13.642;2022-08-20T08:21:15;19.00;99.90
7248;DHT22;3665;51.034;13.642;2022-08-20T08:25:59;19.00;99.90
7248;DHT22;3665;51.034;13.642;2022-08-20T08:30:46;19.00;99.90
7248;DHT22;3665;51.034;13.642;2022-08-20T08:35:30;18.90;99.90
7248;DHT22;3665;51.034;13.642;2022-08-20T08:40:17;18.90;99.90
7248;DHT22;3665;51.034;13.642;2022-08-20T08:45:01;19.00;99.90
7248;DHT22;3665;51.034;13.642;2022-08-20T08:49:47;19.00;99.90
7248;DHT22;3665;51.034;13.642;2022-08-20T08:54:32;19.10;99.90
7248;DHT22;3665;51.034;13.642;2022-08-20T08:59:19;19.20;99.90
7248;DHT22;3665;51.034;13.642;2022-08-20T09:04:03;19.20;99.90
7248;DHT22;3665;51.034;13.642;2022-08-20T09:08:49;19.10;99.90
7248;DHT22;3665;51.034;13.642;2022-08-20T09:13:36;19.10;99.90
7248;DHT22;3665;51.034;13.642;2022-08-20T09:18:21;18.90;99.90
7248;DHT22;3665;51.034;13.642;2022-08-20T09:23:05;18.90;99.90
7248;DHT22;3665;51.034;13.642;2022-08-20T09:27:49;18.80;99.90
7248;DHT22;3665;51.034;13.642;2022-08-20T09:32:33;18.60;99.90
7248;DHT22;3665;51.034;13.642;2022-08-20T09:37:18;18.60;99.90
7248;DHT22;3665;51.034;13.642;2022-08-20T09:42:08;18.70;99.90
7248;DHT22;3665;51.034;13.642;2022-08-20T09:46:52;18.80;99.90
7248;DHT22;3665;51.034;13.642;2022-08-20T09:51:36;18.90;99.90
7248;DHT22;3665;51.034;13.642;2022-08-20T09:56:21;18.90;99.90
7248;DHT22;3665;51.034;13.642;2022-08-20T10:01:08;19.10;99.90
7248;DHT22;3665;51.034;13.642;2022-08-20T10:05:55;19.20;99.90
7248;DHT22;3665;51.034;13.642;2022-08-20T10:10:39;19.50;99.90
7248;DHT22;3665;51.034;13.642;2022-08-20T10:15:24;19.50;99.90
7248;DHT22;3665;51.034;13.642;2022-08-20T10:20:11;19.50;99.90
7248;DHT22;3665;51.034;13.642;2022-08-20T10:24:55;19.40;99.90
7248;DHT22;3665;51.034;13.642;2022-08-20T10:29:40;19.20;99.90
7248;DHT22;3665;51.034;13.642;2022-08-20T10:34:29;19.30;99.90
7248;DHT22;3665;51.034;13.642;2022-08-20T10:39:13;19.20;99.90
7248;DHT22;3665;51.034;13.642;2022-08-20T10:43:56;19.10;99.90
7248;DHT22;3665;51.034;13.642;2022-08-20T10:48:40;19.20;99.90
7248;DHT22;3665;51.034;13.642;2022-08-20T10:53:26;19.10;99.90
7248;DHT22;3665;51.034;13.642;2022-08-20T10:58:10;19.20;99.90
7248;DHT22;3665;51.034;13.642;2022-08-20T11:02:54;19.20;99.90
7248;DHT22;3665;51.034;13.642;2022-08-20T11:07:40;19.10;99.90
7248;DHT22;3665;51.034;13.642;2022-08-20T11:12:42;19.00;99.90
7248;DHT22;3665;51.034;13.642;2022-08-20T11:17:30;19.00;99.90
7248;DHT22;3665;51.034;13.642;2022-08-20T11:22:18;19.00;99.90
7248;DHT22;3665;51.034;13.642;2022-08-20T11:27:03;18.90;99.90
7248;DHT22;3665;51.034;13.642;2022-08-20T11:31:50;18.80;99.90
7248;DHT22;3665;51.034;13.642;2022-08-20T11:36:34;18.80;99.90
7248;DHT22;3665;51.034;13.642;2022-08-20T11:41:19;18.80;99.90
7248;DHT22;3665;51.034;13.642;2022-08-20T11:46:03;18.70;99.90
7248;DHT22;3665;51.034;13.642;2022-08-20T11:50:48;18.70;99.90
7248;DHT22;3665;51.034;13.642;2022-08-20T11:55:32;18.60;99.90
7248;DHT22;3665;51.034;13.642;2022-08-20T12:00:20;18.60;99.90
7248;DHT22;3665;51.034;13.642;2022-08-20T12:05:14;18.60;99.90
7248;DHT22;3665;51.034;13.642;2022-08-20T12:09:59;18.70;99.90
7248;DHT22;3665;51.034;13.642;2022-08-20T12:14:43;18.50;99.90
7248;DHT22;3665;51.034;13.642;2022-08-20T12:19:27;18.50;99.90
7248;DHT22;3665;51.034;13.642;2022-08-20T12:24:11;18.50;99.90
7248;DHT22;3665;51.034;13.642;2022-08-20T12:28:56;18.60;99.90
7248;DHT22;3665;51.034;13.642;2022-08-20T12:33:40;18.50;99.90
7248;DHT22;3665;51.034;13.642;2022-08-20T12:38:24;18.50;99.90
7248;DHT22;3665;51.034;13.642;2022-08-20T12:43:07;18.40;99.90
7248;DHT22;3665;51.034;13.642;2022-08-20T12:48:00;18.40;99.90
7248;DHT22;3665;51.034;13.642;2022-08-20T12:52:44;18.50;99.90
7248;DHT22;3665;51.034;13.642;2022-08-20T12:57:31;18.40;99.90
7248;DHT22;3665;51.034;13.642;2022-08-20T13:02:15;18.40;99.90
7248;DHT22;3665;51.034;13.642;2022-08-20T13:07:02;18.40;99.90
7248;DHT22;3665;51.034;13.642;2022-08-20T13:11:50;18.50;99.90
7248;DHT22;3665;51.034;13.642;2022-08-20T13:16:34;18.50;99.90
7248;DHT22;3665;51.034;13.642;2022-08-20T13:21:17;18.70;99.90
7248;DHT22;3665;51.034;13.642;2022-08-20T13:26:06;18.70;99.90
7248;DHT22;3665;51.034;13.642;2022-08-20T13:30:50;18.70;99.90
7248;DHT22;3665;51.034;13.642;2022-08-20T13:35:34;18.80;99.90
7248;DHT22;3665;51.034;13.642;2022-08-20T13:40:18;18.90;99.90
7248;DHT22;3665;51.034;13.642;2022-08-20T13:45:04;19.00;99.90
7248;DHT22;3665;51.034;13.642;2022-08-20T13:49:54;19.10;99.90
7248;DHT22;3665;51.034;13.642;2022-08-20T13:54:38;19.00;99.90
7248;DHT22;3665;51.034;13.642;2022-08-20T13:59:23;19.10;99.90
7248;DHT22;3665;51.034;13.642;2022-08-20T14:04:08;19.20;99.90
7248;DHT22;3665;51.034;13.642;2022-08-20T14:08:52;19.20;99.90
7248;DHT22;3665;51.034;13.642;2022-08-20T14:13:36;19.20;99.90
7248;DHT22;3665;51.034;13.642;2022-08-20T14:18:20;19.30;99.90
7248;DHT22;3665;51.034;13.642;2022-08-20T14:23:05;19.30;99.90
7248;DHT22;3665;51.034;13.642;2022-08-20T14:27:50;19.20;99.90
7248;DHT22;3665;51.034;13.642;2022-08-20T14:32:35;19.00;99.90
7248;DHT22;3665;51.034;13.642;2022-08-20T14:37:20;19.00;99.90
7248;DHT22;3665;51.034;13.642;2022-08-20T14:42:06;19.10;99.90
7248;DHT22;3665;51.034;13.642;2022-08-20T14:46:50;19.10;99.90
7248;DHT22;3665;51.034;13.642;2022-08-20T14:51:34;19.10;99.90
7248;DHT22;3665;51.034;13.642;2022-08-20T14:56:20;19.20;99.90
7248;DHT22;3665;51.034;13.642;2022-08-20T15:01:05;19.30;99.90
7248;DHT22;3665;51.034;13.642;2022-08-20T15:06:28;19.30;99.90
7248;DHT22;3665;51.034;13.642;2022-08-20T15:11:14;19.30;99.90
7248;DHT22;3665;51.034;13.642;2022-08-20T15:15:58;19.30;99.90
7248;DHT22;3665;51.034;13.642;2022-08-20T15:20:43;19.40;99.90
7248;DHT22;3665;51.034;13.642;2022-08-20T15:25:29;19.30;99.90
7248;DHT22;3665;51.034;13.642;2022-08-20T15:30:20;19.40;99.90
7248;DHT22;3665;51.034;13.642;2022-08-20T15:35:08;19.30;99.90
7248;DHT22;3665;51.034;13.642;2022-08-20T15:39:56;19.40;99.90
7248;DHT22;3665;51.034;13.642;2022-08-20T15:44:40;19.40;99.90
7248;DHT22;3665;51.034;13.642;2022-08-20T15:49:28;19.40;99.90
7248;DHT22;3665;51.034;13.642;2022-08-20T15:54:16;19.20;99.90
7248;DHT22;3665;51.034;13.642;2022-08-20T15:59:12;19.10;99.90
7248;DHT22;3665;51.034;13.642;2022-08-20T16:04:17;18.90;99.90
7248;DHT22;3665;51.034;13.642;2022-08-20T16:09:25;18.60;99.90
7248;DHT22;3665;51.034;13.642;2022-08-20T16:14:16;18.30;99.90
7248;DHT22;3665;51.034;13.642;2022-08-20T16:19:00;18.20;99.90
7248;DHT22;3665;51.034;13.642;2022-08-20T16:23:44;18.20;99.90
7248;DHT22;3665;51.034;13.642;2022-08-20T16:28:35;18.20;99.90
7248;DHT22;3665;51.034;13.642;2022-08-20T16:33:34;18.20;99.90
7248;DHT22;3665;51.034;13.642;2022-08-20T16:38:31;18.30;99.90
7248;DHT22;3665;51.034;13.642;2022-08-20T16:43:23;18.40;99.90
7248;DHT22;3665;51.034;13.642;2022-08-20T16:48:08;18.50;99.90
7248;DHT22;3665;51.034;13.642;2022-08-20T16:52:54;18.50;99.90
7248;DHT22;3665;51.034;13.642;2022-08-20T16:57:38;18.50;99.90
7248;DHT22;3665;51.034;13.642;2022-08-20T17:02:22;18.50;99.90
7248;DHT22;3665;51.034;13.642;2022-08-20T17:07:12;18.50;99.90
7248;DHT22;3665;51.034;13.642;2022-08-20T17:12:15;18.50;99.90
7248;DHT22;3665;51.034;13.642;2022-08-20T17:17:02;18.40;99.90
7248;DHT22;3665;51.034;13.642;2022-08-20T17:21:46;18.40;99.90
7248;DHT22;3665;51.034;13.642;2022-08-20T17:26:35;18.30;99.90
7248;DHT22;3665;51.034;13.642;2022-08-20T17:31:31;18.30;99.90
7248;DHT22;3665;51.034;13.642;2022-08-20T17:36:21;18.20;99.90
7248;DHT22;3665;51.034;13.642;2022-08-20T17:41:09;18.10;99.90
7248;DHT22;3665;51.034;13.642;2022-08-20T17:46:02;18.00;99.90
7248;DHT22;3665;51.034;13.642;2022-08-20T17:50:53;18.00;99.90
7248;DHT22;3665;51.034;13.642;2022-08-20T17:55:40;17.90;99.90
7248;DHT22;3665;51.034;13.642;2022-08-20T18:00:26;17.80;99.90
7248;DHT22;3665;51.034;13.642;2022-08-20T18:05:15;17.70;99.90
7248;DHT22;3665;51.034;13.642;2022-08-20T18:10:06;17.70;99.90
7248;DHT22;3665;51.034;13.642;2022-08-20T18:14:59;17.60;99.90
7248;DHT22;3665;51.034;13.642;2022-08-20T18:20:10;17.60;99.90
7248;DHT22;3665;51.034;13.642;2022-08-20T18:24:59;17.50;99.90
7248;DHT22;3665;51.034;13.642;2022-08-20T18:29:56;17.40;99.90
7248;DHT22;3665;51.034;13.642;2022-08-20T18:34:40;17.40;99.90
7248;DHT22;3665;51.034;13.642;2022-08-20T18:39:28;17.30;99.90
7248;DHT22;3665;51.034;13.642;2022-08-20T18:44:14;17.30;99.90
7248;DHT22;3665;51.034;13.642;2022-08-20T18:49:11;17.30;99.90
7248;DHT22;3665;51.034;13.642;2022-08-20T18:53:55;17.30;99.90
7248;DHT22;3665;51.034;13.642;2022-08-20T18:58:49;17.30;99.90
7248;DHT22;3665;51.034;13.642;2022-08-20T19:03:38;17.30;99.90
7248;DHT22;3665;51.034;13.642;2022-08-20T19:08:34;17.30;99.90
7248;DHT22;3665;51.034;13.642;2022-08-20T19:13:47;17.30;99.90
7248;DHT22;3665;51.034;13.642;2022-08-20T19:18:39;17.30;99.90
7248;DHT22;3665;51.034;13.642;2022-08-20T19:23:29;17.30;99.90
7248;DHT22;3665;51.034;13.642;2022-08-20T19:28:19;17.40;99.90
7248;DHT22;3665;51.034;13.642;2022-08-20T19:33:12;17.40;99.90
7248;DHT22;3665;51.034;13.642;2022-08-20T19:37:56;17.40;99.90
7248;DHT22;3665;51.034;13.642;2022-08-20T19:42:42;17.40;99.90
7248;DHT22;3665;51.034;13.642;2022-08-20T19:47:30;17.40;99.90
7248;DHT22;3665;51.034;13.642;2022-08-20T19:52:32;17.40;99.90
7248;DHT22;3665;51.034;13.642;2022-08-20T19:57:19;17.50;99.90
7248;DHT22;3665;51.034;13.642;2022-08-20T20:02:05;17.40;99.90
7248;DHT22;3665;51.034;13.642;2022-08-20T20:07:06;17.50;99.90
7248;DHT22;3665;51.034;13.642;2022-08-20T20:11:53;17.50;99.90
7248;DHT22;3665;51.034;13.642;2022-08-20T20:16:38;17.50;99.90
7248;DHT22;3665;51.034;13.642;2022-08-20T20:21:34;17.50;99.90
7248;DHT22;3665;51.034;13.642;2022-08-20T20:26:18;17.50;99.90
7248;DHT22;3665;51.034;13.642;2022-08-20T20:31:07;17.50;99.90
7248;DHT22;3665;51.034;13.642;2022-08-20T20:36:02;17.50;99.90
7248;DHT22;3665;51.034;13.642;2022-08-20T20:40:50;17.50;99.90
7248;DHT22;3665;51.034;13.642;2022-08-20T20:45:37;17.50;99.90
7248;DHT22;3665;51.034;13.642;2022-08-20T20:50:28;17.50;99.90
7248;DHT22;3665;51.034;13.642;2022-08-20T20:55:21;17.50;99.90
7248;DHT22;3665;51.034;13.642;2022-08-20T21:00:09;17.50;99.90
7248;DHT22;3665;51.034;13.642;2022-08-20T21:04:54;17.60;99.90
7248;DHT22;3665;51.034;13.642;2022-08-20T21:09:41;17.50;99.90
7248;DHT22;3665;51.034;13.642;2022-08-20T21:14:25;17.50;99.90
7248;DHT22;3665;51.034;13.642;2022-08-20T21:19:10;17.40;99.90
7248;DHT22;3665;51.034;13.642;2022-08-20T21:23:54;17.40;99.90
7248;DHT22;3665;51.034;13.642;2022-08-20T21:28:38;17.40;99.90
7248;DHT22;3665;51.034;13.642;2022-08-20T21:33:21;17.30;99.90
7248;DHT22;3665;51.034;13.642;2022-08-20T21:38:07;17.40;99.90
7248;DHT22;3665;51.034;13.642;2022-08-20T21:42:54;17.40;99.90
7248;DHT22;3665;51.034;13.642;2022-08-20T21:47:39;17.40;99.90
7248;DHT22;3665;51.034;13.642;2022-08-20T21:52:25;17.40;99.90
7248;DHT22;3665;51.034;13.642;2022-08-20T21:57:13;17.40;99.90
7248;DHT22;3665;51.034;13.642;2022-08-20T22:01:59;17.40;99.90
7248;DHT22;3665;51.034;13.642;2022-08-20T22:06:43;17.40;99.90
7248;DHT22;3665;51.034;13.642;2022-08-20T22:11:27;17.30;99.90
7248;DHT22;3665;51.034;13.642;2022-08-20T22:16:16;17.30;99.90
7248;DHT22;3665;51.034;13.642;2022-08-20T22:21:00;17.30;99.90
7248;DHT22;3665;51.034;13.642;2022-08-20T22:25:43;17.40;99.90
7248;DHT22;3665;51.034;13.642;2022-08-20T22:30:27;17.40;99.90
7248;DHT22;3665;51.034;13.642;2022-08-20T22:35:13;17.30;99.90
7248;DHT22;3665;51.034;13.642;2022-08-20T22:39:56;17.40;99.90
7248;DHT22;3665;51.034;13.642;2022-08-20T22:44:40;17.40;99.90
7248;DHT22;3665;51.034;13.642;2022-08-20T22:49:28;17.40;99.90
7248;DHT22;3665;51.034;13.642;2022-08-20T22:54:19;17.40;99.90
7248;DHT22;3665;51.034;13.642;2022-08-20T22:59:04;17.40;99.90
7248;DHT22;3665;51.034;13.642;2022-08-20T23:03:47;17.40;99.90
7248;DHT22;3665;51.034;13.642;2022-08-20T23:08:31;17.40;99.90
7248;DHT22;3665;51.034;13.642;2022-08-20T23:13:16;17.40;99.90
7248;DHT22;3665;51.034;13.642;2022-08-20T23:18:02;17.40;99.90
7248;DHT22;3665;51.034;13.642;2022-08-20T23:22:47;17.50;99.90
7248;DHT22;3665;51.034;13.642;2022-08-20T23:27:40;17.40;99.90
7248;DHT22;3665;51.034;13.642;2022-08-20T23:32:26;17.40;99.90
7248;DHT22;3665;51.034;13.642;2022-08-20T23:37:10;17.30;99.90
7248;DHT22;3665;51.034;13.642;2022-08-20T23:41:55;17.30;99.90
7248;DHT22;3665;51.034;13.642;2022-08-20T23:46:43;17.30;99.90
7248;DHT22;3665;51.034;13.642;2022-08-20T23:51:28;17.30;99.90
7248;DHT22;3665;51.034;13.642;2022-08-20T23:56:12;17.30;99.90
